sensor_id;sensor_type;location;lat;lon;timestamp;pressure;altitude;pressure_sealevel;temperature;humidity
73457;BME280;61691;53.072;6.582;2023-03-04T00:02:16;102557.25;;;6.49;67.36
73457;BME280;61691;53.072;6.582;2023-03-04T00:04:43;102536.53;;;6.41;67.52
73457;BME280;61691;53.072;6.582;2023-03-04T00:07:10;102558.13;;;6.49;67.38
73457;BME280;61691;53.072;6.582;2023-03-04T00:09:38;102537.69;;;6.34;67.42
73457;BME280;61691;53.072;6.582;2023-03-04T00:12:05;102547.63;;;6.48;67.33
73457;BME280;61691;53.072;6.582;2023-03-04T00:14:34;102539.03;;;6.44;67.40
73457;BME280;61691;53.072;6.582;2023-03-04T00:17:00;102548.84;;;6.41;67.08
73457;BME280;61691;53.072;6.582;2023-03-04T00:19:30;102561.56;;;6.51;67.15
73457;BME280;61691;53.072;6.582;2023-03-04T00:21:57;102561.56;;;6.51;67.10
73457;BME280;61691;53.072;6.582;2023-03-04T00:24:24;102556.41;;;6.48;67.20
73457;BME280;61691;53.072;6.582;2023-03-04T00:26:51;102523.88;;;6.29;67.62
73457;BME280;61691;53.072;6.582;2023-03-04T00:29:17;102536.56;;;6.40;67.44
73457;BME280;61691;53.072;6.582;2023-03-04T00:31:44;102522.97;;;6.30;66.96
73457;BME280;61691;53.072;6.582;2023-03-04T00:34:11;102526.31;;;6.34;67.42
73457;BME280;61691;53.072;6.582;2023-03-04T00:36:38;102539.03;;;6.44;66.82
73457;BME280;61691;53.072;6.582;2023-03-04T00:39:05;102522.06;;;6.31;66.85
73457;BME280;61691;53.072;6.582;2023-03-04T00:41:31;102523.63;;;6.35;67.06
73457;BME280;61691;53.072;6.582;2023-03-04T00:43:58;102525.44;;;6.33;67.04
73457;BME280;61691;53.072;6.582;2023-03-04T00:46:25;102515.31;;;6.24;66.94
73457;BME280;61691;53.072;6.582;2023-03-04T00:48:52;102507.34;;;6.26;67.08
73457;BME280;61691;53.072;6.582;2023-03-04T00:51:18;102538.22;;;6.42;66.96
73457;BME280;61691;53.072;6.582;2023-03-04T00:53:45;102518.63;;;6.29;66.95
73457;BME280;61691;53.072;6.582;2023-03-04T00:56:13;102513.19;;;6.32;66.92
73457;BME280;61691;53.072;6.582;2023-03-04T00:58:39;102528.03;;;6.35;66.82
73457;BME280;61691;53.072;6.582;2023-03-04T01:01:06;102535.00;;;6.36;67.11
73457;BME280;61691;53.072;6.582;2023-03-04T01:03:33;102480.81;;;6.10;66.92
73457;BME280;61691;53.072;6.582;2023-03-04T01:06:00;102532.97;;;6.42;67.13
73457;BME280;61691;53.072;6.582;2023-03-04T01:08:27;102519.28;;;6.34;66.93
73457;BME280;61691;53.072;6.582;2023-03-04T01:10:54;102532.97;;;6.42;66.88
73457;BME280;61691;53.072;6.582;2023-03-04T01:13:21;102508.25;;;6.25;67.11
73457;BME280;61691;53.072;6.582;2023-03-04T01:15:48;102511.63;;;6.28;67.34
73457;BME280;61691;53.072;6.582;2023-03-04T01:18:14;102506.31;;;6.30;67.35
73457;BME280;61691;53.072;6.582;2023-03-04T01:20:41;102527.75;;;6.41;67.52
73457;BME280;61691;53.072;6.582;2023-03-04T01:23:08;102513.09;;;6.35;67.59
73457;BME280;61691;53.072;6.582;2023-03-04T01:25:35;102508.66;;;6.36;67.64
73457;BME280;61691;53.072;6.582;2023-03-04T01:28:02;102496.69;;;6.29;67.57
73457;BME280;61691;53.072;6.582;2023-03-04T01:30:29;102514.81;;;6.36;67.26
73457;BME280;61691;53.072;6.582;2023-03-04T01:32:56;102501.63;;;6.36;67.81
73457;BME280;61691;53.072;6.582;2023-03-04T01:35:22;102486.22;;;6.27;67.78
73457;BME280;61691;53.072;6.582;2023-03-04T01:37:49;102440.94;;;5.99;67.96
73457;BME280;61691;53.072;6.582;2023-03-04T01:40:16;102490.69;;;6.25;68.06
73457;BME280;61691;53.072;6.582;2023-03-04T01:42:43;102506.03;;;6.36;67.97
73457;BME280;61691;53.072;6.582;2023-03-04T01:45:13;102490.56;;;6.28;68.08
73457;BME280;61691;53.072;6.582;2023-03-04T01:47:43;102495.72;;;6.31;68.37
73457;BME280;61691;53.072;6.582;2023-03-04T01:52:47;102485.03;;;6.34;67.97
73457;BME280;61691;53.072;6.582;2023-03-04T01:55:16;102485.94;;;6.33;67.59
73457;BME280;61691;53.072;6.582;2023-03-04T01:57:45;102452.53;;;6.15;67.56
73457;BME280;61691;53.072;6.582;2023-03-04T02:02:51;102491.22;;;6.33;67.76
73457;BME280;61691;53.072;6.582;2023-03-04T02:05:19;102459.25;;;6.22;67.32
73457;BME280;61691;53.072;6.582;2023-03-04T02:07:47;102480.69;;;6.33;67.33
73457;BME280;61691;53.072;6.582;2023-03-04T02:10:14;102478.03;;;6.33;67.34
73457;BME280;61691;53.072;6.582;2023-03-04T02:12:41;102470.47;;;6.26;67.39
73457;BME280;61691;53.072;6.582;2023-03-04T02:15:08;102459.38;;;6.19;67.57
73457;BME280;61691;53.072;6.582;2023-03-04T02:17:35;102486.00;;;6.32;67.70
73457;BME280;61691;53.072;6.582;2023-03-04T02:20:06;102486.09;;;6.30;68.13
73457;BME280;61691;53.072;6.582;2023-03-04T02:22:39;102408.03;;;5.89;68.50
73457;BME280;61691;53.072;6.582;2023-03-04T02:25:22;102476.66;;;6.25;68.56
73457;BME280;61691;53.072;6.582;2023-03-04T02:27:49;102464.78;;;6.16;68.16
73457;BME280;61691;53.072;6.582;2023-03-04T02:30:19;102430.41;;;5.99;68.78
73457;BME280;61691;53.072;6.582;2023-03-04T02:32:47;102459.44;;;6.17;68.73
73457;BME280;61691;53.072;6.582;2023-03-04T02:35:16;102457.47;;;6.22;68.65
73457;BME280;61691;53.072;6.582;2023-03-04T02:37:43;102422.38;;;6.02;68.64
73457;BME280;61691;53.072;6.582;2023-03-04T02:40:17;102457.53;;;6.21;68.92
73457;BME280;61691;53.072;6.582;2023-03-04T02:42:46;102446.34;;;6.16;69.09
73457;BME280;61691;53.072;6.582;2023-03-04T02:48:02;102431.59;;;6.12;69.11
73457;BME280;61691;53.072;6.582;2023-03-04T02:50:35;102453.06;;;6.23;69.05
73457;BME280;61691;53.072;6.582;2023-03-04T02:53:03;102456.56;;;6.24;68.56
73457;BME280;61691;53.072;6.582;2023-03-04T02:55:30;102383.53;;;5.87;68.44
73457;BME280;61691;53.072;6.582;2023-03-04T02:57:58;102439.09;;;6.21;68.96
73457;BME280;61691;53.072;6.582;2023-03-04T03:00:26;102438.94;;;6.24;69.01
73457;BME280;61691;53.072;6.582;2023-03-04T03:02:53;102441.50;;;6.26;68.41
73457;BME280;61691;53.072;6.582;2023-03-04T03:05:27;102433.63;;;6.26;68.49
73457;BME280;61691;53.072;6.582;2023-03-04T03:07:55;102437.03;;;6.28;68.75
73457;BME280;61691;53.072;6.582;2023-03-04T03:10:22;102445.81;;;6.28;68.36
73457;BME280;61691;53.072;6.582;2023-03-04T03:12:50;102438.59;;;6.32;68.49
73457;BME280;61691;53.072;6.582;2023-03-04T03:15:17;102424.00;;;6.25;68.33
73457;BME280;61691;53.072;6.582;2023-03-04T03:17:44;102386.03;;;6.10;68.51
73457;BME280;61691;53.072;6.582;2023-03-04T03:20:12;102429.78;;;6.33;68.25
73457;BME280;61691;53.072;6.582;2023-03-04T03:22:40;102421.03;;;6.32;68.26
73457;BME280;61691;53.072;6.582;2023-03-04T03:25:08;102397.81;;;6.21;68.72
73457;BME280;61691;53.072;6.582;2023-03-04T03:27:35;102411.84;;;6.22;68.38
73457;BME280;61691;53.072;6.582;2023-03-04T03:30:03;102385.91;;;6.13;68.66
73457;BME280;61691;53.072;6.582;2023-03-04T03:32:30;102415.00;;;6.30;68.69
73457;BME280;61691;53.072;6.582;2023-03-04T03:34:57;102397.75;;;6.23;68.54
73457;BME280;61691;53.072;6.582;2023-03-04T03:37:24;102410.66;;;6.29;68.76
73457;BME280;61691;53.072;6.582;2023-03-04T03:39:51;102397.09;;;6.18;68.52
73457;BME280;61691;53.072;6.582;2023-03-04T03:42:17;102409.72;;;6.30;68.68
73457;BME280;61691;53.072;6.582;2023-03-04T03:44:44;102380.66;;;6.13;68.52
73457;BME280;61691;53.072;6.582;2023-03-04T03:47:11;102403.53;;;6.31;69.12
73457;BME280;61691;53.072;6.582;2023-03-04T03:49:37;102399.19;;;6.30;68.68
73457;BME280;61691;53.072;6.582;2023-03-04T03:52:04;102384.09;;;6.15;68.69
73457;BME280;61691;53.072;6.582;2023-03-04T03:54:31;102401.88;;;6.29;68.85
73457;BME280;61691;53.072;6.582;2023-03-04T03:56:58;102373.72;;;6.10;69.15
73457;BME280;61691;53.072;6.582;2023-03-04T03:59:25;102394.13;;;6.26;68.88
73457;BME280;61691;53.072;6.582;2023-03-04T04:01:51;102400.97;;;6.30;68.97
73457;BME280;61691;53.072;6.582;2023-03-04T04:04:18;102373.66;;;6.12;69.25
73457;BME280;61691;53.072;6.582;2023-03-04T04:06:45;102399.44;;;6.24;69.14
73457;BME280;61691;53.072;6.582;2023-03-04T04:09:12;102390.63;;;6.25;69.22
73457;BME280;61691;53.072;6.582;2023-03-04T04:11:38;102375.03;;;6.20;69.41
73457;BME280;61691;53.072;6.582;2023-03-04T04:14:05;102387.22;;;6.23;69.29
73457;BME280;61691;53.072;6.582;2023-03-04T04:16:32;102402.59;;;6.32;69.95
73457;BME280;61691;53.072;6.582;2023-03-04T04:18:59;102356.44;;;6.05;69.88
73457;BME280;61691;53.072;6.582;2023-03-04T04:21:26;102380.25;;;6.22;69.88
73457;BME280;61691;53.072;6.582;2023-03-04T04:23:52;102362.16;;;6.14;70.17
73457;BME280;61691;53.072;6.582;2023-03-04T04:26:19;102369.19;;;6.14;69.75
73457;BME280;61691;53.072;6.582;2023-03-04T04:28:46;102395.63;;;6.31;70.37
73457;BME280;61691;53.072;6.582;2023-03-04T04:31:12;102380.31;;;6.20;69.98
73457;BME280;61691;53.072;6.582;2023-03-04T04:33:39;102389.63;;;6.28;70.22
73457;BME280;61691;53.072;6.582;2023-03-04T04:36:11;102397.41;;;6.31;70.66
73457;BME280;61691;53.072;6.582;2023-03-04T04:38:38;102370.81;;;6.16;70.13
73457;BME280;61691;53.072;6.582;2023-03-04T04:41:05;102386.09;;;6.29;70.56
73457;BME280;61691;53.072;6.582;2023-03-04T04:43:39;102374.97;;;6.22;70.83
73457;BME280;61691;53.072;6.582;2023-03-04T04:46:07;102393.78;;;6.33;70.56
73457;BME280;61691;53.072;6.582;2023-03-04T04:48:34;102370.81;;;6.16;70.88
73457;BME280;61691;53.072;6.582;2023-03-04T04:51:01;102352.91;;;6.06;70.78
73457;BME280;61691;53.072;6.582;2023-03-04T04:53:28;102367.19;;;6.19;71.24
73457;BME280;61691;53.072;6.582;2023-03-04T04:55:55;102319.22;;;5.94;70.97
73457;BME280;61691;53.072;6.582;2023-03-04T04:58:22;102378.13;;;6.30;71.53
73457;BME280;61691;53.072;6.582;2023-03-04T05:00:48;102349.19;;;6.10;71.67
73457;BME280;61691;53.072;6.582;2023-03-04T05:03:15;102377.34;;;6.28;71.60
73457;BME280;61691;53.072;6.582;2023-03-04T05:05:44;102367.84;;;6.24;71.47
73457;BME280;61691;53.072;6.582;2023-03-04T05:08:10;102356.59;;;6.20;71.72
73457;BME280;61691;53.072;6.582;2023-03-04T05:10:37;102346.31;;;6.16;71.71
73457;BME280;61691;53.072;6.582;2023-03-04T05:13:04;102378.13;;;6.30;71.82
73457;BME280;61691;53.072;6.582;2023-03-04T05:15:31;102331.09;;;6.02;71.96
73457;BME280;61691;53.072;6.582;2023-03-04T05:17:57;102344.59;;;6.15;71.91
73457;BME280;61691;53.072;6.582;2023-03-04T05:20:24;102365.22;;;6.24;72.10
73457;BME280;61691;53.072;6.582;2023-03-04T05:22:52;102343.16;;;6.08;72.66
73457;BME280;61691;53.072;6.582;2023-03-04T05:25:19;102368.69;;;6.25;72.33
73457;BME280;61691;53.072;6.582;2023-03-04T05:27:46;102354.44;;;6.10;72.54
73457;BME280;61691;53.072;6.582;2023-03-04T05:30:13;102368.97;;;6.18;73.10
73457;BME280;61691;53.072;6.582;2023-03-04T05:32:40;102357.19;;;6.08;73.31
73457;BME280;61691;53.072;6.582;2023-03-04T05:35:07;102374.25;;;6.18;73.52
73457;BME280;61691;53.072;6.582;2023-03-04T05:37:34;102361.59;;;6.08;73.48
73457;BME280;61691;53.072;6.582;2023-03-04T05:40:00;102344.41;;;5.99;73.63
73457;BME280;61691;53.072;6.582;2023-03-04T05:42:27;102355.41;;;6.09;74.06
73457;BME280;61691;53.072;6.582;2023-03-04T05:44:54;102357.00;;;6.11;73.75
73457;BME280;61691;53.072;6.582;2023-03-04T05:47:21;102361.31;;;6.14;73.81
73457;BME280;61691;53.072;6.582;2023-03-04T05:49:48;102397.09;;;6.18;74.02
73457;BME280;61691;53.072;6.582;2023-03-04T05:52:15;102375.91;;;6.21;74.20
73457;BME280;61691;53.072;6.582;2023-03-04T05:54:41;102357.88;;;6.12;74.12
73457;BME280;61691;53.072;6.582;2023-03-04T05:57:08;102354.59;;;6.07;74.78
73457;BME280;61691;53.072;6.582;2023-03-04T05:59:35;102368.91;;;6.20;74.99
73457;BME280;61691;53.072;6.582;2023-03-04T06:02:02;102375.09;;;6.19;75.00
73457;BME280;61691;53.072;6.582;2023-03-04T06:04:29;102346.78;;;6.05;74.80
73457;BME280;61691;53.072;6.582;2023-03-04T06:06:55;102365.44;;;6.19;75.01
73457;BME280;61691;53.072;6.582;2023-03-04T06:09:22;102364.56;;;6.19;75.22
73457;BME280;61691;53.072;6.582;2023-03-04T06:11:49;102376.81;;;6.20;75.46
73457;BME280;61691;53.072;6.582;2023-03-04T06:14:16;102340.94;;;5.99;75.34
73457;BME280;61691;53.072;6.582;2023-03-04T06:16:43;102304.84;;;5.80;75.36
73457;BME280;61691;53.072;6.582;2023-03-04T06:19:09;102298.03;;;5.76;75.93
73457;BME280;61691;53.072;6.582;2023-03-04T06:21:36;102349.34;;;6.07;75.48
73457;BME280;61691;53.072;6.582;2023-03-04T06:24:03;102357.88;;;6.12;75.98
73457;BME280;61691;53.072;6.582;2023-03-04T06:26:30;102341.06;;;5.96;75.72
73457;BME280;61691;53.072;6.582;2023-03-04T06:28:57;102355.47;;;6.07;76.41
73457;BME280;61691;53.072;6.582;2023-03-04T06:31:23;102366.06;;;6.06;76.04
73457;BME280;61691;53.072;6.582;2023-03-04T06:33:50;102375.50;;;6.10;76.14
73457;BME280;61691;53.072;6.582;2023-03-04T06:36:17;102359.13;;;6.03;76.54
73457;BME280;61691;53.072;6.582;2023-03-04T06:38:44;102384.94;;;6.15;76.27
73457;BME280;61691;53.072;6.582;2023-03-04T06:41:12;102346.25;;;5.97;76.49
73457;BME280;61691;53.072;6.582;2023-03-04T06:43:39;102365.25;;;6.04;76.66
73457;BME280;61691;53.072;6.582;2023-03-04T06:46:06;102358.28;;;6.03;77.00
73457;BME280;61691;53.072;6.582;2023-03-04T06:48:33;102384.09;;;6.15;76.63
73457;BME280;61691;53.072;6.582;2023-03-04T06:51:08;102397.75;;;6.23;77.11
73457;BME280;61691;53.072;6.582;2023-03-04T06:53:36;102395.03;;;6.25;77.18
73457;BME280;61691;53.072;6.582;2023-03-04T06:56:04;102347.16;;;5.96;77.62
73457;BME280;61691;53.072;6.582;2023-03-04T06:58:32;102401.16;;;6.25;77.18
73457;BME280;61691;53.072;6.582;2023-03-04T07:01:28;102393.19;;;6.27;77.64
73457;BME280;61691;53.072;6.582;2023-03-04T07:03:55;102400.13;;;6.29;77.75
73457;BME280;61691;53.072;6.582;2023-03-04T07:06:25;102391.63;;;6.22;77.64
73457;BME280;61691;53.072;6.582;2023-03-04T07:08:53;102386.78;;;6.32;77.55
73457;BME280;61691;53.072;6.582;2023-03-04T07:11:20;102389.34;;;6.34;77.43
73457;BME280;61691;53.072;6.582;2023-03-04T07:13:48;102391.00;;;6.36;77.69
73457;BME280;61691;53.072;6.582;2023-03-04T07:16:18;102396.06;;;6.41;77.54
73457;BME280;61691;53.072;6.582;2023-03-04T07:18:45;102396.72;;;6.46;78.06
73457;BME280;61691;53.072;6.582;2023-03-04T07:21:14;102394.78;;;6.49;77.77
73457;BME280;61691;53.072;6.582;2023-03-04T07:23:41;102384.41;;;6.46;77.84
73457;BME280;61691;53.072;6.582;2023-03-04T07:26:07;102392.03;;;6.52;77.81
73457;BME280;61691;53.072;6.582;2023-03-04T07:28:35;102403.56;;;6.69;77.29
73457;BME280;61691;53.072;6.582;2023-03-04T07:33:38;102403.56;;;6.69;77.40
73457;BME280;61691;53.072;6.582;2023-03-04T07:36:05;102380.41;;;6.56;77.71
73457;BME280;61691;53.072;6.582;2023-03-04T07:38:32;102413.81;;;6.75;77.69
73457;BME280;61691;53.072;6.582;2023-03-04T07:40:59;102415.72;;;6.71;77.55
73457;BME280;61691;53.072;6.582;2023-03-04T07:43:25;102421.72;;;6.75;77.49
73457;BME280;61691;53.072;6.582;2023-03-04T07:45:57;102405.63;;;6.81;77.28
73457;BME280;61691;53.072;6.582;2023-03-04T07:48:25;102394.81;;;6.68;77.50
73457;BME280;61691;53.072;6.582;2023-03-04T07:51:05;102404.31;;;6.71;77.75
73457;BME280;61691;53.072;6.582;2023-03-04T07:53:33;102416.16;;;6.81;77.79
73457;BME280;61691;53.072;6.582;2023-03-04T07:56:01;102386.97;;;6.67;77.63
73457;BME280;61691;53.072;6.582;2023-03-04T07:58:28;102396.06;;;6.78;77.79
73457;BME280;61691;53.072;6.582;2023-03-04T08:00:55;102402.31;;;6.94;78.33
73457;BME280;61691;53.072;6.582;2023-03-04T08:03:22;102418.63;;;7.03;77.74
73457;BME280;61691;53.072;6.582;2023-03-04T08:05:50;102406.59;;;6.97;78.05
73457;BME280;61691;53.072;6.582;2023-03-04T08:08:17;102350.63;;;6.73;78.02
73457;BME280;61691;53.072;6.582;2023-03-04T08:10:44;102417.09;;;7.16;78.41
73457;BME280;61691;53.072;6.582;2023-03-04T08:13:11;102407.41;;;7.16;78.34
73457;BME280;61691;53.072;6.582;2023-03-04T08:15:41;102400.97;;;7.05;78.00
73457;BME280;61691;53.072;6.582;2023-03-04T08:18:08;102402.56;;;7.07;78.11
73457;BME280;61691;53.072;6.582;2023-03-04T08:20:35;102415.56;;;7.12;78.01
73457;BME280;61691;53.072;6.582;2023-03-04T08:23:02;102408.59;;;6.92;78.08
73457;BME280;61691;53.072;6.582;2023-03-04T08:25:29;102416.94;;;6.83;77.79
73457;BME280;61691;53.072;6.582;2023-03-04T08:27:56;102423.44;;;6.76;77.52
73457;BME280;61691;53.072;6.582;2023-03-04T08:30:22;102435.66;;;6.77;77.71
73457;BME280;61691;53.072;6.582;2023-03-04T08:32:49;102424.78;;;6.66;77.97
73457;BME280;61691;53.072;6.582;2023-03-04T08:35:16;102333.38;;;6.10;77.82
73457;BME280;61691;53.072;6.582;2023-03-04T08:37:43;102441.72;;;6.79;78.36
73457;BME280;61691;53.072;6.582;2023-03-04T08:40:12;102442.22;;;6.87;78.19
73457;BME280;61691;53.072;6.582;2023-03-04T08:42:40;102436.81;;;6.90;78.17
73457;BME280;61691;53.072;6.582;2023-03-04T08:45:08;102416.59;;;6.72;78.06
73457;BME280;61691;53.072;6.582;2023-03-04T08:47:36;102407.75;;;6.73;78.16
73457;BME280;61691;53.072;6.582;2023-03-04T08:50:04;102431.56;;;6.90;78.36
73457;BME280;61691;53.072;6.582;2023-03-04T08:52:32;102436.53;;;6.96;78.30
73457;BME280;61691;53.072;6.582;2023-03-04T08:54:59;102440.22;;;6.92;77.87
73457;BME280;61691;53.072;6.582;2023-03-04T08:57:26;102436.81;;;6.90;77.49
73457;BME280;61691;53.072;6.582;2023-03-04T08:59:53;102435.09;;;6.89;78.07
73457;BME280;61691;53.072;6.582;2023-03-04T09:02:19;102411.81;;;6.80;77.52
73457;BME280;61691;53.072;6.582;2023-03-04T09:04:46;102401.41;;;6.77;77.87
73457;BME280;61691;53.072;6.582;2023-03-04T09:07:13;102439.97;;;6.98;77.39
73457;BME280;61691;53.072;6.582;2023-03-04T09:09:40;102427.19;;;6.89;77.18
73457;BME280;61691;53.072;6.582;2023-03-04T09:12:07;102362.31;;;6.49;77.03
73457;BME280;61691;53.072;6.582;2023-03-04T09:14:34;102417.72;;;6.85;77.45
73457;BME280;61691;53.072;6.582;2023-03-04T09:17:02;102434.81;;;6.95;77.67
73457;BME280;61691;53.072;6.582;2023-03-04T09:19:30;102446.00;;;7.00;77.48
73457;BME280;61691;53.072;6.582;2023-03-04T09:21:57;102438.06;;;7.00;76.91
73457;BME280;61691;53.072;6.582;2023-03-04T09:24:25;102460.59;;;7.07;76.93
73457;BME280;61691;53.072;6.582;2023-03-04T09:26:52;102421.00;;;6.90;77.07
73457;BME280;61691;53.072;6.582;2023-03-04T09:29:20;102443.72;;;7.11;76.83
73457;BME280;61691;53.072;6.582;2023-03-04T09:31:47;102437.81;;;7.06;76.62
73457;BME280;61691;53.072;6.582;2023-03-04T09:34:14;102445.25;;;7.15;76.72
73457;BME280;61691;53.072;6.582;2023-03-04T09:36:41;102380.81;;;6.85;76.57
73457;BME280;61691;53.072;6.582;2023-03-04T09:39:08;102408.63;;;7.09;75.94
73457;BME280;61691;53.072;6.582;2023-03-04T09:41:48;102440.34;;;7.26;75.42
73457;BME280;61691;53.072;6.582;2023-03-04T09:46:57;102409.44;;;7.11;73.95
73457;BME280;61691;53.072;6.582;2023-03-04T09:49:25;102454.00;;;7.34;73.61
73457;BME280;61691;53.072;6.582;2023-03-04T09:52:14;102456.00;;;7.29;72.20
73457;BME280;61691;53.072;6.582;2023-03-04T09:57:39;102459.72;;;7.25;72.27
73457;BME280;61691;53.072;6.582;2023-03-04T10:00:16;102462.38;;;7.25;72.36
73457;BME280;61691;53.072;6.582;2023-03-04T10:05:33;102462.44;;;7.24;71.51
73457;BME280;61691;53.072;6.582;2023-03-04T10:08:32;102450.03;;;7.26;71.04
73457;BME280;61691;53.072;6.582;2023-03-04T10:11:03;102437.63;;;7.28;71.75
73457;BME280;61691;53.072;6.582;2023-03-04T10:16:40;102451.41;;;7.52;69.03
73457;BME280;61691;53.072;6.582;2023-03-04T10:19:36;102453.66;;;7.59;69.76
73457;BME280;61691;53.072;6.582;2023-03-04T10:24:45;102421.75;;;7.47;69.73
73457;BME280;61691;53.072;6.582;2023-03-04T10:27:16;102459.00;;;7.75;69.85
73457;BME280;61691;53.072;6.582;2023-03-04T10:29:44;102458.66;;;7.65;68.89
73457;BME280;61691;53.072;6.582;2023-03-04T10:32:17;102457.78;;;7.65;68.72
73457;BME280;61691;53.072;6.582;2023-03-04T10:34:44;102451.25;;;7.55;68.37
73457;BME280;61691;53.072;6.582;2023-03-04T10:37:11;102455.84;;;7.51;68.39
73457;BME280;61691;53.072;6.582;2023-03-04T10:39:41;102433.94;;;7.49;68.75
73457;BME280;61691;53.072;6.582;2023-03-04T10:44:50;102464.91;;;7.63;68.19
73457;BME280;61691;53.072;6.582;2023-03-04T10:47:18;102457.72;;;7.66;68.70
73457;BME280;61691;53.072;6.582;2023-03-04T10:49:50;102453.06;;;7.71;68.56
73457;BME280;61691;53.072;6.582;2023-03-04T10:54:54;102472.88;;;7.80;68.83
73457;BME280;61691;53.072;6.582;2023-03-04T10:57:39;102448.78;;;7.69;67.26
73457;BME280;61691;53.072;6.582;2023-03-04T11:02:44;102426.41;;;7.42;65.15
73457;BME280;61691;53.072;6.582;2023-03-04T11:05:19;102451.88;;;7.60;65.33
73457;BME280;61691;53.072;6.582;2023-03-04T11:13:01;102438.84;;;7.74;64.87
73457;BME280;61691;53.072;6.582;2023-03-04T11:15:48;102422.25;;;7.72;63.79
73457;BME280;61691;53.072;6.582;2023-03-04T11:18:18;102443.97;;;7.94;63.63
73457;BME280;61691;53.072;6.582;2023-03-04T11:20:48;102447.22;;;7.99;64.02
73457;BME280;61691;53.072;6.582;2023-03-04T11:23:20;102437.22;;;7.89;63.00
73457;BME280;61691;53.072;6.582;2023-03-04T11:25:55;102436.06;;;7.94;61.91
73457;BME280;61691;53.072;6.582;2023-03-04T11:28:38;102431.84;;;7.90;60.27
73457;BME280;61691;53.072;6.582;2023-03-04T11:31:14;102434.59;;;7.89;61.54
73457;BME280;61691;53.072;6.582;2023-03-04T11:33:54;102435.72;;;7.83;61.37
73457;BME280;61691;53.072;6.582;2023-03-04T11:36:49;102449.41;;;7.91;61.08
73457;BME280;61691;53.072;6.582;2023-03-04T11:39:30;102428.75;;;7.82;61.17
73457;BME280;61691;53.072;6.582;2023-03-04T11:42:16;102437.91;;;7.92;61.81
73457;BME280;61691;53.072;6.582;2023-03-04T11:44:46;102421.13;;;7.93;61.81
73457;BME280;61691;53.072;6.582;2023-03-04T11:47:32;102423.66;;;8.12;61.63
73457;BME280;61691;53.072;6.582;2023-03-04T11:50:17;102426.53;;;8.25;61.41
73457;BME280;61691;53.072;6.582;2023-03-04T11:55:35;102435.41;;;8.24;60.80
73457;BME280;61691;53.072;6.582;2023-03-04T12:00:53;102423.06;;;8.07;60.82
73457;BME280;61691;53.072;6.582;2023-03-04T12:25:42;102395.66;;;8.09;62.73
73457;BME280;61691;53.072;6.582;2023-03-04T12:31:27;102354.69;;;8.18;62.33
73457;BME280;61691;53.072;6.582;2023-03-04T12:34:08;102377.34;;;8.39;62.03
73457;BME280;61691;53.072;6.582;2023-03-04T12:37:07;102383.81;;;8.34;61.38
73457;BME280;61691;53.072;6.582;2023-03-04T12:39:38;102387.38;;;8.33;61.88
73457;BME280;61691;53.072;6.582;2023-03-04T12:45:48;102393.06;;;8.08;62.23
73457;BME280;61691;53.072;6.582;2023-03-04T12:48:30;102405.28;;;7.93;63.14
73457;BME280;61691;53.072;6.582;2023-03-04T12:54:02;102399.25;;;7.74;63.35
73457;BME280;61691;53.072;6.582;2023-03-04T12:56:43;102389.00;;;7.68;63.81
73457;BME280;61691;53.072;6.582;2023-03-04T12:59:15;102377.03;;;7.61;63.68
73457;BME280;61691;53.072;6.582;2023-03-04T13:02:00;102398.69;;;7.67;63.82
73457;BME280;61691;53.072;6.582;2023-03-04T13:05:06;102382.84;;;7.67;64.15
73457;BME280;61691;53.072;6.582;2023-03-04T13:07:51;102356.09;;;7.58;63.91
73457;BME280;61691;53.072;6.582;2023-03-04T13:10:22;102388.22;;;7.83;64.10
73457;BME280;61691;53.072;6.582;2023-03-04T13:12:56;102391.22;;;7.93;63.42
73457;BME280;61691;53.072;6.582;2023-03-04T13:17:52;102375.28;;;8.11;63.05
73457;BME280;61691;53.072;6.582;2023-03-04T13:23:01;102377.13;;;8.27;62.25
73457;BME280;61691;53.072;6.582;2023-03-04T13:25:48;102311.91;;;7.78;62.13
73457;BME280;61691;53.072;6.582;2023-03-04T13:28:28;102392.06;;;8.10;62.00
73457;BME280;61691;53.072;6.582;2023-03-04T13:36:51;102363.38;;;7.70;61.90
73457;BME280;61691;53.072;6.582;2023-03-04T13:39:26;102368.19;;;7.62;62.45
73457;BME280;61691;53.072;6.582;2023-03-04T13:41:54;102368.97;;;7.64;62.67
73457;BME280;61691;53.072;6.582;2023-03-04T13:47:06;102356.63;;;7.64;62.84
73457;BME280;61691;53.072;6.582;2023-03-04T13:49:34;102347.94;;;7.62;62.93
73457;BME280;61691;53.072;6.582;2023-03-04T13:52:39;102361.22;;;7.61;64.15
73457;BME280;61691;53.072;6.582;2023-03-04T13:58:25;102335.00;;;7.41;63.23
73457;BME280;61691;53.072;6.582;2023-03-04T14:00:54;102341.06;;;7.43;63.39
73457;BME280;61691;53.072;6.582;2023-03-04T14:03:27;102357.97;;;7.56;63.44
73457;BME280;61691;53.072;6.582;2023-03-04T14:06:21;102353.22;;;7.62;63.17
73457;BME280;61691;53.072;6.582;2023-03-04T14:08:50;102346.41;;;7.58;62.79
73457;BME280;61691;53.072;6.582;2023-03-04T14:11:24;102335.47;;;7.49;62.89
73457;BME280;61691;53.072;6.582;2023-03-04T14:13:52;102327.06;;;7.41;62.80
73457;BME280;61691;53.072;6.582;2023-03-04T14:16:21;102341.81;;;7.45;62.70
73457;BME280;61691;53.072;6.582;2023-03-04T14:19:03;102341.19;;;7.39;61.99
73457;BME280;61691;53.072;6.582;2023-03-04T14:21:34;102321.34;;;7.32;62.41
73457;BME280;61691;53.072;6.582;2023-03-04T14:24:05;102310.16;;;7.27;62.25
73457;BME280;61691;53.072;6.582;2023-03-04T14:26:33;102336.63;;;7.43;62.36
73457;BME280;61691;53.072;6.582;2023-03-04T14:29:00;102323.03;;;7.33;62.11
73457;BME280;61691;53.072;6.582;2023-03-04T14:31:30;102342.44;;;7.50;61.63
73457;BME280;61691;53.072;6.582;2023-03-04T14:34:00;102293.50;;;7.27;61.77
73457;BME280;61691;53.072;6.582;2023-03-04T14:36:31;102342.97;;;7.56;61.94
73457;BME280;61691;53.072;6.582;2023-03-04T14:39:00;102343.84;;;7.57;61.53
73457;BME280;61691;53.072;6.582;2023-03-04T14:41:32;102342.13;;;7.56;61.65
73457;BME280;61691;53.072;6.582;2023-03-04T14:44:25;102334.22;;;7.38;61.24
73457;BME280;61691;53.072;6.582;2023-03-04T14:46:58;102303.78;;;7.14;61.56